sensor_id;sensor_type;location;lat;lon;timestamp;temperature;humidity
11264;DHT22;5689;48.798;9.070;2024-03-29T00:01:53;8.30;85.80
11264;DHT22;5689;48.798;9.070;2024-03-29T00:04:19;8.20;86.30
11264;DHT22;5689;48.798;9.070;2024-03-29T00:06:45;8.20;85.90
11264;DHT22;5689;48.798;9.070;2024-03-29T00:09:11;8.30;86.20
11264;DHT22;5689;48.798;9.070;2024-03-29T00:11:39;8.30;85.90
11264;DHT22;5689;48.798;9.070;2024-03-29T00:14:05;8.30;86.10
11264;DHT22;5689;48.798;9.070;2024-03-29T00:16:31;8.30;86.30
11264;DHT22;5689;48.798;9.070;2024-03-29T00:18:57;8.30;86.40
11264;DHT22;5689;48.798;9.070;2024-03-29T00:21:23;8.20;86.60
11264;DHT22;5689;48.798;9.070;2024-03-29T00:23:49;8.20;86.50
11264;DHT22;5689;48.798;9.070;2024-03-29T00:26:15;8.30;86.60
11264;DHT22;5689;48.798;9.070;2024-03-29T00:28:42;8.30;86.40
11264;DHT22;5689;48.798;9.070;2024-03-29T00:31:09;8.30;86.70
11264;DHT22;5689;48.798;9.070;2024-03-29T00:33:35;8.20;86.60
11264;DHT22;5689;48.798;9.070;2024-03-29T00:36:01;8.20;86.50
11264;DHT22;5689;48.798;9.070;2024-03-29T00:38:27;8.10;86.90
11264;DHT22;5689;48.798;9.070;2024-03-29T00:40:53;8.10;87.10
11264;DHT22;5689;48.798;9.070;2024-03-29T00:43:19;8.10;87.00
11264;DHT22;5689;48.798;9.070;2024-03-29T00:45:46;8.10;86.90
11264;DHT22;5689;48.798;9.070;2024-03-29T00:48:13;8.20;87.80
11264;DHT22;5689;48.798;9.070;2024-03-29T00:50:39;8.20;87.00
11264;DHT22;5689;48.798;9.070;2024-03-29T00:53:05;8.20;86.80
11264;DHT22;5689;48.798;9.070;2024-03-29T00:55:31;8.30;86.60
11264;DHT22;5689;48.798;9.070;2024-03-29T00:57:57;8.30;86.60
11264;DHT22;5689;48.798;9.070;2024-03-29T01:00:23;8.40;86.60
11264;DHT22;5689;48.798;9.070;2024-03-29T01:02:51;8.50;86.00
11264;DHT22;5689;48.798;9.070;2024-03-29T01:05:17;8.50;86.00
11264;DHT22;5689;48.798;9.070;2024-03-29T01:07:43;8.50;86.00
11264;DHT22;5689;48.798;9.070;2024-03-29T01:10:09;8.60;85.50
11264;DHT22;5689;48.798;9.070;2024-03-29T01:12:35;8.60;85.30
11264;DHT22;5689;48.798;9.070;2024-03-29T01:15:02;8.70;85.00
11264;DHT22;5689;48.798;9.070;2024-03-29T01:17:28;8.70;84.90
11264;DHT22;5689;48.798;9.070;2024-03-29T01:19:56;8.70;84.90
11264;DHT22;5689;48.798;9.070;2024-03-29T01:22:22;8.70;84.80
11264;DHT22;5689;48.798;9.070;2024-03-29T01:24:48;8.70;84.80
11264;DHT22;5689;48.798;9.070;2024-03-29T01:27:14;8.60;85.10
11264;DHT22;5689;48.798;9.070;2024-03-29T01:29:40;8.60;84.90
11264;DHT22;5689;48.798;9.070;2024-03-29T01:32:07;8.60;84.90
11264;DHT22;5689;48.798;9.070;2024-03-29T01:34:33;8.60;84.70
11264;DHT22;5689;48.798;9.070;2024-03-29T01:37:00;8.60;84.40
11264;DHT22;5689;48.798;9.070;2024-03-29T01:39:26;8.60;84.40
11264;DHT22;5689;48.798;9.070;2024-03-29T01:41:52;8.70;84.00
11264;DHT22;5689;48.798;9.070;2024-03-29T01:44:18;8.70;83.70
11264;DHT22;5689;48.798;9.070;2024-03-29T01:46:46;8.70;83.60
11264;DHT22;5689;48.798;9.070;2024-03-29T01:49:13;8.70;83.60
11264;DHT22;5689;48.798;9.070;2024-03-29T01:51:41;8.80;83.10
11264;DHT22;5689;48.798;9.070;2024-03-29T01:54:10;8.90;82.70
11264;DHT22;5689;48.798;9.070;2024-03-29T01:56:39;8.90;82.40
11264;DHT22;5689;48.798;9.070;2024-03-29T01:59:12;9.00;82.00
11264;DHT22;5689;48.798;9.070;2024-03-29T02:01:40;9.00;81.50
11264;DHT22;5689;48.798;9.070;2024-03-29T02:04:08;9.10;81.00
11264;DHT22;5689;48.798;9.070;2024-03-29T02:06:35;9.20;80.70
11264;DHT22;5689;48.798;9.070;2024-03-29T02:09:02;9.20;81.10
11264;DHT22;5689;48.798;9.070;2024-03-29T02:11:31;9.20;80.80
11264;DHT22;5689;48.798;9.070;2024-03-29T02:13:58;9.10;80.80
11264;DHT22;5689;48.798;9.070;2024-03-29T02:16:25;9.20;80.60
11264;DHT22;5689;48.798;9.070;2024-03-29T02:18:52;9.10;81.20
11264;DHT22;5689;48.798;9.070;2024-03-29T02:21:19;9.10;81.10
11264;DHT22;5689;48.798;9.070;2024-03-29T02:26:19;9.00;81.70
11264;DHT22;5689;48.798;9.070;2024-03-29T02:28:46;9.00;81.70
11264;DHT22;5689;48.798;9.070;2024-03-29T02:31:13;9.00;81.80
11264;DHT22;5689;48.798;9.070;2024-03-29T02:33:40;9.00;81.80
11264;DHT22;5689;48.798;9.070;2024-03-29T02:36:07;9.10;81.40
11264;DHT22;5689;48.798;9.070;2024-03-29T02:38:34;9.10;81.20
11264;DHT22;5689;48.798;9.070;2024-03-29T02:41:01;9.20;81.10
11264;DHT22;5689;48.798;9.070;2024-03-29T02:43:30;9.20;80.90
11264;DHT22;5689;48.798;9.070;2024-03-29T02:45:57;9.20;81.40
11264;DHT22;5689;48.798;9.070;2024-03-29T02:48:24;9.20;81.80
11264;DHT22;5689;48.798;9.070;2024-03-29T02:50:50;9.20;80.80
11264;DHT22;5689;48.798;9.070;2024-03-29T02:53:16;9.30;80.80
11264;DHT22;5689;48.798;9.070;2024-03-29T02:55:43;9.30;81.10
11264;DHT22;5689;48.798;9.070;2024-03-29T02:58:09;9.30;81.20
11264;DHT22;5689;48.798;9.070;2024-03-29T03:00:38;9.30;80.70
11264;DHT22;5689;48.798;9.070;2024-03-29T03:03:04;9.30;81.10
11264;DHT22;5689;48.798;9.070;2024-03-29T03:05:31;9.30;80.70
11264;DHT22;5689;48.798;9.070;2024-03-29T03:07:58;9.30;80.60
11264;DHT22;5689;48.798;9.070;2024-03-29T03:10:46;9.30;80.30
11264;DHT22;5689;48.798;9.070;2024-03-29T03:13:26;9.40;80.10
11264;DHT22;5689;48.798;9.070;2024-03-29T03:15:56;9.40;80.50
11264;DHT22;5689;48.798;9.070;2024-03-29T03:18:22;9.40;79.70
11264;DHT22;5689;48.798;9.070;2024-03-29T03:20:53;9.40;79.90
11264;DHT22;5689;48.798;9.070;2024-03-29T03:23:19;9.50;79.50
11264;DHT22;5689;48.798;9.070;2024-03-29T03:25:53;9.50;79.30
11264;DHT22;5689;48.798;9.070;2024-03-29T03:28:19;9.50;79.70
11264;DHT22;5689;48.798;9.070;2024-03-29T03:30:46;9.40;79.60
11264;DHT22;5689;48.798;9.070;2024-03-29T03:33:13;9.60;79.30
11264;DHT22;5689;48.798;9.070;2024-03-29T03:35:40;9.60;79.10
11264;DHT22;5689;48.798;9.070;2024-03-29T03:38:07;9.70;80.00
11264;DHT22;5689;48.798;9.070;2024-03-29T03:40:34;9.60;80.50
11264;DHT22;5689;48.798;9.070;2024-03-29T03:43:01;9.50;81.10
11264;DHT22;5689;48.798;9.070;2024-03-29T03:45:28;9.60;80.80
11264;DHT22;5689;48.798;9.070;2024-03-29T03:47:54;9.40;81.60
11264;DHT22;5689;48.798;9.070;2024-03-29T03:50:22;9.20;82.20
11264;DHT22;5689;48.798;9.070;2024-03-29T03:52:48;9.10;82.80
11264;DHT22;5689;48.798;9.070;2024-03-29T03:55:15;9.20;83.70
11264;DHT22;5689;48.798;9.070;2024-03-29T03:57:41;9.20;84.20
11264;DHT22;5689;48.798;9.070;2024-03-29T04:00:09;9.30;81.70
11264;DHT22;5689;48.798;9.070;2024-03-29T04:02:38;9.30;81.90
11264;DHT22;5689;48.798;9.070;2024-03-29T04:05:07;9.40;82.50
11264;DHT22;5689;48.798;9.070;2024-03-29T04:07:34;9.50;81.00
11264;DHT22;5689;48.798;9.070;2024-03-29T04:10:01;9.50;80.70
11264;DHT22;5689;48.798;9.070;2024-03-29T04:12:27;9.50;79.80
11264;DHT22;5689;48.798;9.070;2024-03-29T04:14:54;9.60;79.50
11264;DHT22;5689;48.798;9.070;2024-03-29T04:17:22;9.70;79.00
11264;DHT22;5689;48.798;9.070;2024-03-29T04:19:49;9.70;78.10
11264;DHT22;5689;48.798;9.070;2024-03-29T04:22:15;9.80;77.90
11264;DHT22;5689;48.798;9.070;2024-03-29T04:24:43;9.90;77.60
11264;DHT22;5689;48.798;9.070;2024-03-29T04:27:10;9.90;76.80
11264;DHT22;5689;48.798;9.070;2024-03-29T04:29:37;10.00;76.00
11264;DHT22;5689;48.798;9.070;2024-03-29T04:32:04;10.10;74.90
11264;DHT22;5689;48.798;9.070;2024-03-29T04:34:31;10.20;74.40
11264;DHT22;5689;48.798;9.070;2024-03-29T04:36:57;10.30;74.10
11264;DHT22;5689;48.798;9.070;2024-03-29T04:39:24;10.30;74.00
11264;DHT22;5689;48.798;9.070;2024-03-29T04:41:52;10.30;74.20
11264;DHT22;5689;48.798;9.070;2024-03-29T04:44:23;10.30;75.00
11264;DHT22;5689;48.798;9.070;2024-03-29T04:46:51;10.20;76.50
11264;DHT22;5689;48.798;9.070;2024-03-29T04:49:19;10.00;77.30
11264;DHT22;5689;48.798;9.070;2024-03-29T04:51:50;9.80;78.90
11264;DHT22;5689;48.798;9.070;2024-03-29T04:54:17;9.60;79.60
11264;DHT22;5689;48.798;9.070;2024-03-29T04:56:44;9.70;80.00
11264;DHT22;5689;48.798;9.070;2024-03-29T04:59:12;9.70;80.30
11264;DHT22;5689;48.798;9.070;2024-03-29T05:01:42;9.50;80.50
11264;DHT22;5689;48.798;9.070;2024-03-29T05:04:10;9.60;80.70
11264;DHT22;5689;48.798;9.070;2024-03-29T05:06:37;9.70;79.70
11264;DHT22;5689;48.798;9.070;2024-03-29T05:09:04;9.80;79.00
11264;DHT22;5689;48.798;9.070;2024-03-29T05:11:31;9.90;77.80
11264;DHT22;5689;48.798;9.070;2024-03-29T05:13:58;10.00;76.30
11264;DHT22;5689;48.798;9.070;2024-03-29T05:16:28;10.10;75.20
11264;DHT22;5689;48.798;9.070;2024-03-29T05:18:55;10.10;75.20
11264;DHT22;5689;48.798;9.070;2024-03-29T05:21:22;10.10;74.80
11264;DHT22;5689;48.798;9.070;2024-03-29T05:23:48;10.20;74.60
11264;DHT22;5689;48.798;9.070;2024-03-29T05:26:17;10.10;75.00
11264;DHT22;5689;48.798;9.070;2024-03-29T05:28:44;10.10;74.70
11264;DHT22;5689;48.798;9.070;2024-03-29T05:31:13;10.20;74.80
11264;DHT22;5689;48.798;9.070;2024-03-29T05:33:42;10.20;74.40
11264;DHT22;5689;48.798;9.070;2024-03-29T05:36:09;10.20;74.50
11264;DHT22;5689;48.798;9.070;2024-03-29T05:38:37;10.20;75.00
11264;DHT22;5689;48.798;9.070;2024-03-29T05:41:04;10.20;74.80
11264;DHT22;5689;48.798;9.070;2024-03-29T05:43:32;10.30;74.80
11264;DHT22;5689;48.798;9.070;2024-03-29T05:45:59;10.30;74.90
11264;DHT22;5689;48.798;9.070;2024-03-29T05:48:27;10.30;75.10
11264;DHT22;5689;48.798;9.070;2024-03-29T05:50:55;10.40;74.50
11264;DHT22;5689;48.798;9.070;2024-03-29T05:53:22;10.30;74.80
11264;DHT22;5689;48.798;9.070;2024-03-29T05:55:49;10.30;75.00
11264;DHT22;5689;48.798;9.070;2024-03-29T05:58:16;10.40;74.10
11264;DHT22;5689;48.798;9.070;2024-03-29T06:00:44;10.40;74.20
11264;DHT22;5689;48.798;9.070;2024-03-29T06:03:11;10.40;74.20
11264;DHT22;5689;48.798;9.070;2024-03-29T06:05:39;10.40;74.20
11264;DHT22;5689;48.798;9.070;2024-03-29T06:08:08;10.50;74.50
11264;DHT22;5689;48.798;9.070;2024-03-29T06:10:35;10.60;74.70
11264;DHT22;5689;48.798;9.070;2024-03-29T06:13:02;10.90;75.40
11264;DHT22;5689;48.798;9.070;2024-03-29T06:15:36;10.90;74.60
11264;DHT22;5689;48.798;9.070;2024-03-29T06:18:20;11.10;73.60
11264;DHT22;5689;48.798;9.070;2024-03-29T06:20:47;11.30;73.20
11264;DHT22;5689;48.798;9.070;2024-03-29T06:23:16;11.40;72.90
11264;DHT22;5689;48.798;9.070;2024-03-29T06:25:44;11.30;73.10
11264;DHT22;5689;48.798;9.070;2024-03-29T06:28:11;11.20;73.60
11264;DHT22;5689;48.798;9.070;2024-03-29T06:30:38;11.30;73.40
11264;DHT22;5689;48.798;9.070;2024-03-29T06:33:07;11.50;73.10
11264;DHT22;5689;48.798;9.070;2024-03-29T06:35:34;11.40;72.30
11264;DHT22;5689;48.798;9.070;2024-03-29T06:38:01;11.30;73.70
11264;DHT22;5689;48.798;9.070;2024-03-29T06:40:30;11.30;73.60
11264;DHT22;5689;48.798;9.070;2024-03-29T06:42:57;11.30;73.40
11264;DHT22;5689;48.798;9.070;2024-03-29T06:45:25;11.30;73.50
11264;DHT22;5689;48.798;9.070;2024-03-29T06:47:52;11.50;73.30
11264;DHT22;5689;48.798;9.070;2024-03-29T06:50:19;11.70;73.40
11264;DHT22;5689;48.798;9.070;2024-03-29T06:52:46;12.00;72.70
11264;DHT22;5689;48.798;9.070;2024-03-29T06:55:13;12.00;71.90
11264;DHT22;5689;48.798;9.070;2024-03-29T06:57:41;11.90;72.50
11264;DHT22;5689;48.798;9.070;2024-03-29T07:00:11;11.80;73.20
11264;DHT22;5689;48.798;9.070;2024-03-29T07:02:38;11.90;74.30
11264;DHT22;5689;48.798;9.070;2024-03-29T07:05:05;12.20;73.40
11264;DHT22;5689;48.798;9.070;2024-03-29T07:07:33;12.30;72.70
11264;DHT22;5689;48.798;9.070;2024-03-29T07:10:00;12.50;73.10
11264;DHT22;5689;48.798;9.070;2024-03-29T07:12:28;12.50;71.90
11264;DHT22;5689;48.798;9.070;2024-03-29T07:14:56;12.40;71.10
11264;DHT22;5689;48.798;9.070;2024-03-29T07:17:23;12.30;71.10
11264;DHT22;5689;48.798;9.070;2024-03-29T07:19:50;12.20;72.70
11264;DHT22;5689;48.798;9.070;2024-03-29T07:22:17;12.00;75.70
11264;DHT22;5689;48.798;9.070;2024-03-29T07:24:45;11.80;79.40
11264;DHT22;5689;48.798;9.070;2024-03-29T07:27:12;11.20;82.70
11264;DHT22;5689;48.798;9.070;2024-03-29T07:29:42;10.90;82.70
11264;DHT22;5689;48.798;9.070;2024-03-29T07:32:11;11.00;82.50
11264;DHT22;5689;48.798;9.070;2024-03-29T07:34:38;10.70;85.60
11264;DHT22;5689;48.798;9.070;2024-03-29T07:37:06;10.50;86.90
11264;DHT22;5689;48.798;9.070;2024-03-29T07:39:32;10.30;91.80
11264;DHT22;5689;48.798;9.070;2024-03-29T07:41:58;9.70;94.90
11264;DHT22;5689;48.798;9.070;2024-03-29T07:44:25;9.30;97.60
11264;DHT22;5689;48.798;9.070;2024-03-29T07:46:52;9.10;99.90
11264;DHT22;5689;48.798;9.070;2024-03-29T07:49:21;9.00;99.90
11264;DHT22;5689;48.798;9.070;2024-03-29T07:51:48;9.00;99.90
11264;DHT22;5689;48.798;9.070;2024-03-29T07:54:15;9.00;99.90
11264;DHT22;5689;48.798;9.070;2024-03-29T07:56:42;8.90;99.90
11264;DHT22;5689;48.798;9.070;2024-03-29T07:59:09;8.60;99.90
11264;DHT22;5689;48.798;9.070;2024-03-29T08:01:36;8.60;99.90
11264;DHT22;5689;48.798;9.070;2024-03-29T08:04:03;8.50;99.90
11264;DHT22;5689;48.798;9.070;2024-03-29T08:06:32;8.50;99.90
11264;DHT22;5689;48.798;9.070;2024-03-29T08:08:59;8.40;99.90
11264;DHT22;5689;48.798;9.070;2024-03-29T08:11:26;8.40;99.90
11264;DHT22;5689;48.798;9.070;2024-03-29T08:13:53;8.30;99.90
11264;DHT22;5689;48.798;9.070;2024-03-29T08:16:20;8.30;99.90
11264;DHT22;5689;48.798;9.070;2024-03-29T08:18:47;8.30;99.90
11264;DHT22;5689;48.798;9.070;2024-03-29T08:21:14;8.30;99.90
11264;DHT22;5689;48.798;9.070;2024-03-29T08:23:42;8.30;99.90
11264;DHT22;5689;48.798;9.070;2024-03-29T08:26:12;8.30;99.90
11264;DHT22;5689;48.798;9.070;2024-03-29T08:28:39;8.30;99.90
11264;DHT22;5689;48.798;9.070;2024-03-29T08:31:07;8.30;99.90
11264;DHT22;5689;48.798;9.070;2024-03-29T08:33:34;8.30;99.90
11264;DHT22;5689;48.798;9.070;2024-03-29T08:36:03;8.40;99.90
11264;DHT22;5689;48.798;9.070;2024-03-29T08:38:31;8.40;99.90
11264;DHT22;5689;48.798;9.070;2024-03-29T08:40:59;8.40;99.90
11264;DHT22;5689;48.798;9.070;2024-03-29T08:43:26;8.40;99.90
11264;DHT22;5689;48.798;9.070;2024-03-29T08:45:53;8.40;99.90
11264;DHT22;5689;48.798;9.070;2024-03-29T08:48:20;8.50;99.90
11264;DHT22;5689;48.798;9.070;2024-03-29T08:50:47;8.60;99.90
11264;DHT22;5689;48.798;9.070;2024-03-29T08:53:14;8.70;99.90
11264;DHT22;5689;48.798;9.070;2024-03-29T08:55:41;8.80;99.90
11264;DHT22;5689;48.798;9.070;2024-03-29T08:58:09;8.90;99.90
11264;DHT22;5689;48.798;9.070;2024-03-29T09:00:36;9.10;99.90
11264;DHT22;5689;48.798;9.070;2024-03-29T09:03:04;9.20;99.90
11264;DHT22;5689;48.798;9.070;2024-03-29T09:05:31;9.40;99.90
11264;DHT22;5689;48.798;9.070;2024-03-29T09:08:01;9.60;99.90
11264;DHT22;5689;48.798;9.070;2024-03-29T09:10:28;9.70;99.90
11264;DHT22;5689;48.798;9.070;2024-03-29T09:12:55;9.80;99.90
11264;DHT22;5689;48.798;9.070;2024-03-29T09:15:23;9.80;99.90
11264;DHT22;5689;48.798;9.070;2024-03-29T09:17:51;10.00;99.90
11264;DHT22;5689;48.798;9.070;2024-03-29T09:20:21;9.90;99.90
11264;DHT22;5689;48.798;9.070;2024-03-29T09:22:50;9.90;99.90
11264;DHT22;5689;48.798;9.070;2024-03-29T09:25:17;10.00;99.90
11264;DHT22;5689;48.798;9.070;2024-03-29T09:27:45;9.90;99.90
11264;DHT22;5689;48.798;9.070;2024-03-29T09:30:14;9.90;99.90
11264;DHT22;5689;48.798;9.070;2024-03-29T09:32:43;9.90;99.90
11264;DHT22;5689;48.798;9.070;2024-03-29T09:35:10;9.90;99.90
11264;DHT22;5689;48.798;9.070;2024-03-29T09:37:37;9.80;99.90
11264;DHT22;5689;48.798;9.070;2024-03-29T09:40:07;9.90;99.90
11264;DHT22;5689;48.798;9.070;2024-03-29T09:42:35;9.90;99.90
11264;DHT22;5689;48.798;9.070;2024-03-29T09:45:06;9.90;99.90
11264;DHT22;5689;48.798;9.070;2024-03-29T09:47:34;10.20;99.90
11264;DHT22;5689;48.798;9.070;2024-03-29T09:50:04;10.50;99.90
11264;DHT22;5689;48.798;9.070;2024-03-29T09:52:32;10.60;99.90
11264;DHT22;5689;48.798;9.070;2024-03-29T09:55:00;10.80;99.90
11264;DHT22;5689;48.798;9.070;2024-03-29T09:57:28;11.00;99.90
11264;DHT22;5689;48.798;9.070;2024-03-29T09:59:56;11.10;99.90
11264;DHT22;5689;48.798;9.070;2024-03-29T10:02:27;11.00;99.90
11264;DHT22;5689;48.798;9.070;2024-03-29T10:04:56;11.00;99.90
11264;DHT22;5689;48.798;9.070;2024-03-29T10:07:25;11.20;99.90
11264;DHT22;5689;48.798;9.070;2024-03-29T10:09:53;11.50;99.90
11264;DHT22;5689;48.798;9.070;2024-03-29T10:12:21;11.80;99.90
11264;DHT22;5689;48.798;9.070;2024-03-29T10:14:48;11.80;99.90
11264;DHT22;5689;48.798;9.070;2024-03-29T10:17:18;11.60;99.90
11264;DHT22;5689;48.798;9.070;2024-03-29T10:19:46;11.80;99.90
11264;DHT22;5689;48.798;9.070;2024-03-29T10:22:13;12.00;99.90
11264;DHT22;5689;48.798;9.070;2024-03-29T10:24:41;12.30;99.90
11264;DHT22;5689;48.798;9.070;2024-03-29T10:27:09;12.50;99.90
11264;DHT22;5689;48.798;9.070;2024-03-29T10:29:36;12.80;99.90
11264;DHT22;5689;48.798;9.070;2024-03-29T10:32:03;12.90;99.90
11264;DHT22;5689;48.798;9.070;2024-03-29T10:34:30;13.00;99.90
11264;DHT22;5689;48.798;9.070;2024-03-29T10:37:01;12.10;99.90
11264;DHT22;5689;48.798;9.070;2024-03-29T10:39:29;12.20;99.90
11264;DHT22;5689;48.798;9.070;2024-03-29T10:42:01;12.70;99.90
11264;DHT22;5689;48.798;9.070;2024-03-29T10:44:29;13.00;99.90
11264;DHT22;5689;48.798;9.070;2024-03-29T10:46:56;13.40;99.90
11264;DHT22;5689;48.798;9.070;2024-03-29T10:49:25;13.60;99.90
11264;DHT22;5689;48.798;9.070;2024-03-29T10:51:53;13.80;99.90
11264;DHT22;5689;48.798;9.070;2024-03-29T10:54:23;14.10;99.90
11264;DHT22;5689;48.798;9.070;2024-03-29T10:56:58;14.50;99.90
11264;DHT22;5689;48.798;9.070;2024-03-29T10:59:34;14.10;99.90
11264;DHT22;5689;48.798;9.070;2024-03-29T11:02:10;14.20;99.90
11264;DHT22;5689;48.798;9.070;2024-03-29T11:04:39;13.80;99.90
11264;DHT22;5689;48.798;9.070;2024-03-29T11:07:13;14.30;99.90
11264;DHT22;5689;48.798;9.070;2024-03-29T11:09:43;14.70;99.90
11264;DHT22;5689;48.798;9.070;2024-03-29T11:12:11;14.80;99.90
11264;DHT22;5689;48.798;9.070;2024-03-29T11:14:44;14.70;99.90
11264;DHT22;5689;48.798;9.070;2024-03-29T11:17:13;15.20;99.90
11264;DHT22;5689;48.798;9.070;2024-03-29T11:19:40;15.80;99.90
11264;DHT22;5689;48.798;9.070;2024-03-29T11:22:07;15.80;99.90
11264;DHT22;5689;48.798;9.070;2024-03-29T11:24:34;15.40;99.90
11264;DHT22;5689;48.798;9.070;2024-03-29T11:27:07;15.20;99.90
11264;DHT22;5689;48.798;9.070;2024-03-29T11:29:36;14.80;99.90
11264;DHT22;5689;48.798;9.070;2024-03-29T11:32:07;14.90;99.90
11264;DHT22;5689;48.798;9.070;2024-03-29T11:34:34;15.70;99.90
11264;DHT22;5689;48.798;9.070;2024-03-29T11:37:09;16.30;99.90
11264;DHT22;5689;48.798;9.070;2024-03-29T11:39:36;16.80;99.90
11264;DHT22;5689;48.798;9.070;2024-03-29T11:42:03;16.60;99.90
11264;DHT22;5689;48.798;9.070;2024-03-29T11:44:30;16.70;99.90
11264;DHT22;5689;48.798;9.070;2024-03-29T11:46:58;16.50;99.90
11264;DHT22;5689;48.798;9.070;2024-03-29T11:49:26;16.30;99.90
11264;DHT22;5689;48.798;9.070;2024-03-29T11:52:02;16.70;99.90
11264;DHT22;5689;48.798;9.070;2024-03-29T11:54:37;16.50;99.90
11264;DHT22;5689;48.798;9.070;2024-03-29T11:57:04;16.30;99.90
11264;DHT22;5689;48.798;9.070;2024-03-29T11:59:31;15.70;99.90
11264;DHT22;5689;48.798;9.070;2024-03-29T12:01:58;15.40;99.90
11264;DHT22;5689;48.798;9.070;2024-03-29T12:04:26;14.90;99.90
11264;DHT22;5689;48.798;9.070;2024-03-29T12:06:54;14.80;99.90
11264;DHT22;5689;48.798;9.070;2024-03-29T12:09:21;14.40;99.90
11264;DHT22;5689;48.798;9.070;2024-03-29T12:11:48;14.20;99.90
11264;DHT22;5689;48.798;9.070;2024-03-29T12:14:16;14.10;99.90
11264;DHT22;5689;48.798;9.070;2024-03-29T12:16:44;14.40;99.90
11264;DHT22;5689;48.798;9.070;2024-03-29T12:19:22;15.00;99.90
11264;DHT22;5689;48.798;9.070;2024-03-29T12:21:50;15.60;99.90
11264;DHT22;5689;48.798;9.070;2024-03-29T12:24:17;15.60;99.90
11264;DHT22;5689;48.798;9.070;2024-03-29T12:26:44;15.70;99.90
11264;DHT22;5689;48.798;9.070;2024-03-29T12:29:10;16.00;99.90
11264;DHT22;5689;48.798;9.070;2024-03-29T12:31:37;16.10;99.90
11264;DHT22;5689;48.798;9.070;2024-03-29T12:34:04;16.20;99.90
11264;DHT22;5689;48.798;9.070;2024-03-29T12:36:33;15.90;99.90
11264;DHT22;5689;48.798;9.070;2024-03-29T12:39:01;15.60;99.90
11264;DHT22;5689;48.798;9.070;2024-03-29T12:41:31;15.90;99.90
11264;DHT22;5689;48.798;9.070;2024-03-29T12:44:00;16.70;99.90
11264;DHT22;5689;48.798;9.070;2024-03-29T12:46:28;17.20;99.90
11264;DHT22;5689;48.798;9.070;2024-03-29T12:48:58;17.30;99.90
11264;DHT22;5689;48.798;9.070;2024-03-29T12:51:27;18.20;99.90
11264;DHT22;5689;48.798;9.070;2024-03-29T12:53:53;18.00;99.90
11264;DHT22;5689;48.798;9.070;2024-03-29T12:56:22;17.10;99.90
11264;DHT22;5689;48.798;9.070;2024-03-29T12:58:49;16.90;99.90
11264;DHT22;5689;48.798;9.070;2024-03-29T13:01:16;15.60;99.90
11264;DHT22;5689;48.798;9.070;2024-03-29T13:03:43;15.10;99.90
11264;DHT22;5689;48.798;9.070;2024-03-29T13:06:10;15.70;99.90
11264;DHT22;5689;48.798;9.070;2024-03-29T13:08:38;16.30;99.90
11264;DHT22;5689;48.798;9.070;2024-03-29T13:11:05;16.00;99.90
11264;DHT22;5689;48.798;9.070;2024-03-29T13:13:34;16.70;99.90
11264;DHT22;5689;48.798;9.070;2024-03-29T13:16:01;17.60;99.90
11264;DHT22;5689;48.798;9.070;2024-03-29T13:18:28;19.70;99.90
11264;DHT22;5689;48.798;9.070;2024-03-29T13:20:55;20.40;98.90
11264;DHT22;5689;48.798;9.070;2024-03-29T13:23:25;21.60;95.40
11264;DHT22;5689;48.798;9.070;2024-03-29T13:25:52;20.50;95.50
11264;DHT22;5689;48.798;9.070;2024-03-29T13:28:21;22.80;92.10
11264;DHT22;5689;48.798;9.070;2024-03-29T13:30:49;23.20;90.40
11264;DHT22;5689;48.798;9.070;2024-03-29T13:33:17;23.10;85.20
11264;DHT22;5689;48.798;9.070;2024-03-29T13:35:44;23.40;81.10
11264;DHT22;5689;48.798;9.070;2024-03-29T13:38:11;21.00;80.80
11264;DHT22;5689;48.798;9.070;2024-03-29T13:40:38;19.80;83.40
11264;DHT22;5689;48.798;9.070;2024-03-29T13:43:06;19.30;85.30
11264;DHT22;5689;48.798;9.070;2024-03-29T13:45:34;20.60;85.40
11264;DHT22;5689;48.798;9.070;2024-03-29T13:48:02;23.00;83.60
11264;DHT22;5689;48.798;9.070;2024-03-29T13:50:29;24.40;80.00
11264;DHT22;5689;48.798;9.070;2024-03-29T13:52:56;23.10;79.40
11264;DHT22;5689;48.798;9.070;2024-03-29T13:55:23;24.70;76.40
11264;DHT22;5689;48.798;9.070;2024-03-29T13:57:53;25.80;74.50
11264;DHT22;5689;48.798;9.070;2024-03-29T14:00:20;25.20;74.90
11264;DHT22;5689;48.798;9.070;2024-03-29T14:02:48;25.40;72.20
11264;DHT22;5689;48.798;9.070;2024-03-29T14:05:16;22.70;75.40
11264;DHT22;5689;48.798;9.070;2024-03-29T14:07:43;24.00;78.00
11264;DHT22;5689;48.798;9.070;2024-03-29T14:10:10;24.80;76.70
11264;DHT22;5689;48.798;9.070;2024-03-29T14:12:37;24.00;76.00
11264;DHT22;5689;48.798;9.070;2024-03-29T14:15:05;25.60;73.30
11264;DHT22;5689;48.798;9.070;2024-03-29T14:17:33;25.70;72.90
11264;DHT22;5689;48.798;9.070;2024-03-29T14:20:00;26.60;70.20
11264;DHT22;5689;48.798;9.070;2024-03-29T14:22:30;26.20;70.00
11264;DHT22;5689;48.798;9.070;2024-03-29T14:24:59;24.00;74.90
11264;DHT22;5689;48.798;9.070;2024-03-29T14:27:26;20.70;80.10
11264;DHT22;5689;48.798;9.070;2024-03-29T14:29:53;21.10;82.50
11264;DHT22;5689;48.798;9.070;2024-03-29T14:32:21;21.20;80.60
11264;DHT22;5689;48.798;9.070;2024-03-29T14:34:48;20.20;82.30
11264;DHT22;5689;48.798;9.070;2024-03-29T14:37:15;19.00;86.90
11264;DHT22;5689;48.798;9.070;2024-03-29T14:39:43;19.40;89.10
11264;DHT22;5689;48.798;9.070;2024-03-29T14:42:11;20.30;86.40
11264;DHT22;5689;48.798;9.070;2024-03-29T14:44:41;20.70;84.70
11264;DHT22;5689;48.798;9.070;2024-03-29T14:47:08;23.50;79.20
11264;DHT22;5689;48.798;9.070;2024-03-29T14:49:36;22.20;81.10
11264;DHT22;5689;48.798;9.070;2024-03-29T14:52:04;22.90;79.90
11264;DHT22;5689;48.798;9.070;2024-03-29T14:54:31;22.10;79.00
11264;DHT22;5689;48.798;9.070;2024-03-29T14:56:59;20.30;84.00
11264;DHT22;5689;48.798;9.070;2024-03-29T14:59:26;18.90;89.00
11264;DHT22;5689;48.798;9.070;2024-03-29T15:01:56;20.70;86.10
11264;DHT22;5689;48.798;9.070;2024-03-29T15:04:23;20.40;84.40
11264;DHT22;5689;48.798;9.070;2024-03-29T15:06:50;19.70;86.30
11264;DHT22;5689;48.798;9.070;2024-03-29T15:09:17;19.10;87.00
11264;DHT22;5689;48.798;9.070;2024-03-29T15:11:44;19.00;88.20
11264;DHT22;5689;48.798;9.070;2024-03-29T15:14:12;19.90;86.30
11264;DHT22;5689;48.798;9.070;2024-03-29T15:16:39;18.60;88.60
11264;DHT22;5689;48.798;9.070;2024-03-29T15:19:06;19.60;88.50
11264;DHT22;5689;48.798;9.070;2024-03-29T15:21:33;20.00;84.50
11264;DHT22;5689;48.798;9.070;2024-03-29T15:24:03;21.20;83.20
11264;DHT22;5689;48.798;9.070;2024-03-29T15:26:30;20.10;83.00
11264;DHT22;5689;48.798;9.070;2024-03-29T15:28:58;18.40;87.60
11264;DHT22;5689;48.798;9.070;2024-03-29T15:31:35;18.40;88.60
11264;DHT22;5689;48.798;9.070;2024-03-29T15:34:03;19.20;89.30
11264;DHT22;5689;48.798;9.070;2024-03-29T15:36:30;19.10;90.00
11264;DHT22;5689;48.798;9.070;2024-03-29T15:38:57;20.10;87.90
11264;DHT22;5689;48.798;9.070;2024-03-29T15:41:32;19.30;86.40
11264;DHT22;5689;48.798;9.070;2024-03-29T15:43:59;19.70;87.00
11264;DHT22;5689;48.798;9.070;2024-03-29T15:46:27;21.10;85.50
11264;DHT22;5689;48.798;9.070;2024-03-29T15:48:55;22.20;82.30
11264;DHT22;5689;48.798;9.070;2024-03-29T15:51:23;20.80;80.70
11264;DHT22;5689;48.798;9.070;2024-03-29T15:53:50;19.90;85.10
11264;DHT22;5689;48.798;9.070;2024-03-29T15:56:18;18.70;87.70
11264;DHT22;5689;48.798;9.070;2024-03-29T15:58:45;18.50;89.70